createdAt,value
2022-12-19T00:01:33.041Z,9.50
2022-12-19T00:04:01.528Z,9.60
2022-12-19T00:06:28.647Z,9.60
2022-12-19T00:08:55.861Z,9.70
2022-12-19T00:11:23.233Z,9.70
2022-12-19T00:13:50.027Z,9.80
2022-12-19T00:16:19.262Z,9.80
2022-12-19T00:18:46.472Z,9.90
2022-12-19T00:21:18.037Z,10.00
2022-12-19T00:23:44.838Z,10.00
2022-12-19T00:26:18.588Z,10.00
2022-12-19T00:28:47.108Z,10.10
2022-12-19T00:31:14.652Z,10.10
2022-12-19T00:33:43.323Z,10.20
2022-12-19T00:36:12.515Z,10.20
2022-12-19T00:38:39.368Z,10.20
2022-12-19T00:41:09.091Z,10.20
2022-12-19T00:43:35.804Z,10.20
2022-12-19T00:46:06.492Z,10.30
2022-12-19T00:48:33.616Z,10.40
2022-12-19T00:51:04.209Z,10.40
2022-12-19T00:53:33.754Z,10.40
2022-12-19T00:56:04.316Z,10.50
2022-12-19T00:58:34.485Z,10.50
2022-12-19T01:01:12.951Z,10.50
2022-12-19T01:03:49.309Z,10.60
2022-12-19T01:06:25.232Z,10.60
2022-12-19T01:08:51.915Z,10.60
2022-12-19T01:11:38.604Z,10.60
2022-12-19T01:14:05.658Z,10.70
2022-12-19T01:16:32.393Z,10.70
2022-12-19T01:18:59.277Z,10.70
2022-12-19T01:21:28.554Z,10.80
2022-12-19T01:23:55.283Z,10.80
2022-12-19T01:26:22.027Z,10.90
2022-12-19T01:28:48.697Z,10.90
2022-12-19T01:31:15.384Z,10.90
2022-12-19T01:33:42.906Z,10.90
2022-12-19T01:36:11.906Z,11.00
2022-12-19T01:38:39.369Z,11.00
2022-12-19T01:41:06.154Z,11.00
2022-12-19T01:43:53.140Z,11.00
2022-12-19T01:46:23.655Z,11.00
2022-12-19T01:48:53.341Z,11.00
2022-12-19T01:51:25.555Z,11.10
2022-12-19T01:54:00.087Z,11.10
2022-12-19T01:56:29.366Z,11.10
2022-12-19T01:59:02.409Z,11.10
2022-12-19T02:01:33.902Z,11.10
2022-12-19T02:04:00.743Z,11.20
2022-12-19T02:06:27.721Z,11.20
2022-12-19T02:08:57.385Z,11.20
2022-12-19T02:11:24.044Z,11.20
2022-12-19T02:13:50.709Z,11.20
2022-12-19T02:16:42.594Z,11.30
2022-12-19T02:19:52.944Z,11.30
2022-12-19T02:22:25.538Z,11.30
2022-12-19T02:25:06.070Z,11.30
2022-12-19T02:27:41.539Z,11.30
2022-12-19T02:30:10.438Z,11.30
2022-12-19T02:32:46.168Z,11.30
2022-12-19T02:35:40.144Z,11.30
2022-12-19T02:38:27.877Z,11.30
2022-12-19T02:41:00.620Z,11.40
2022-12-19T02:43:29.811Z,11.40
2022-12-19T02:45:56.954Z,11.40
2022-12-19T02:48:24.191Z,11.40
2022-12-19T02:50:51.018Z,11.40
2022-12-19T02:53:18.218Z,11.40
2022-12-19T02:56:14.029Z,11.40
2022-12-19T02:58:52.106Z,11.40
2022-12-19T03:01:45.463Z,11.40
2022-12-19T03:04:21.171Z,11.40
2022-12-19T03:06:55.255Z,11.40
2022-12-19T03:09:26.334Z,11.40
2022-12-19T03:12:01.689Z,11.40
2022-12-19T03:14:28.358Z,11.40
2022-12-19T03:16:55.165Z,11.40
2022-12-19T03:19:22.017Z,11.40
2022-12-19T03:21:49.015Z,11.40
2022-12-19T03:24:16.401Z,11.40
2022-12-19T03:26:54.972Z,11.40
2022-12-19T03:29:33.176Z,11.50
2022-12-19T03:32:01.010Z,11.50
2022-12-19T03:34:40.332Z,11.50
2022-12-19T03:37:09.498Z,11.50
2022-12-19T03:39:36.170Z,11.50
2022-12-19T03:42:22.693Z,11.50
2022-12-19T03:44:50.169Z,11.50
2022-12-19T03:47:29.268Z,11.50
2022-12-19T03:49:56.010Z,11.50
2022-12-19T03:52:52.059Z,11.50
2022-12-19T03:55:27.975Z,11.50
2022-12-19T03:58:32.576Z,11.50
2022-12-19T04:01:00.878Z,11.50
2022-12-19T04:03:27.898Z,11.50
2022-12-19T04:05:54.617Z,11.50
2022-12-19T04:08:21.315Z,11.50
2022-12-19T04:10:50.472Z,11.50
2022-12-19T04:13:19.877Z,11.50
2022-12-19T04:15:58.681Z,11.50
2022-12-19T04:18:25.400Z,11.50
2022-12-19T04:20:58.513Z,11.50
2022-12-19T04:23:31.455Z,11.50
2022-12-19T04:26:01.016Z,11.50
2022-12-19T04:28:27.706Z,11.50
2022-12-19T04:30:54.571Z,11.60
2022-12-19T04:33:21.390Z,11.60
2022-12-19T04:35:48.061Z,11.60
2022-12-19T04:38:14.743Z,11.60
2022-12-19T04:40:41.900Z,11.60
2022-12-19T04:43:09.059Z,11.60
2022-12-19T04:45:36.096Z,11.60
2022-12-19T04:48:03.457Z,11.60
2022-12-19T04:50:30.204Z,11.60
2022-12-19T04:52:57.269Z,11.60
2022-12-19T04:55:24.096Z,11.60
2022-12-19T04:57:50.777Z,11.60
2022-12-19T05:00:17.521Z,11.60
2022-12-19T05:02:45.761Z,11.60
2022-12-19T05:05:12.606Z,11.60
2022-12-19T05:07:40.579Z,11.60
2022-12-19T05:10:07.817Z,11.60
2022-12-19T05:12:34.875Z,11.60
2022-12-19T05:15:01.620Z,11.60
2022-12-19T05:17:28.313Z,11.60
2022-12-19T05:19:55.045Z,11.60
2022-12-19T05:22:22.016Z,11.60
2022-12-19T05:24:48.706Z,11.60
2022-12-19T05:27:15.650Z,11.60
2022-12-19T05:29:42.392Z,11.70
2022-12-19T05:32:09.119Z,11.70
2022-12-19T05:34:35.923Z,11.70
2022-12-19T05:37:03.665Z,11.70
2022-12-19T05:39:30.585Z,11.70
2022-12-19T05:41:57.277Z,11.70
2022-12-19T05:44:24.787Z,11.70
2022-12-19T05:46:52.126Z,11.70
2022-12-19T05:49:19.144Z,11.70
2022-12-19T05:51:48.139Z,11.70
2022-12-19T05:54:14.890Z,11.70
2022-12-19T05:56:41.588Z,11.80
2022-12-19T05:59:08.355Z,11.80
2022-12-19T06:01:35.171Z,11.80
2022-12-19T06:04:01.945Z,11.80
2022-12-19T06:06:29.263Z,11.70
2022-12-19T06:08:58.208Z,11.80
2022-12-19T06:11:25.299Z,11.80
2022-12-19T06:13:52.300Z,11.80
2022-12-19T06:16:19.959Z,11.80
2022-12-19T06:18:47.394Z,11.80
2022-12-19T06:21:16.103Z,11.80
2022-12-19T06:23:43.065Z,11.80
2022-12-19T06:26:18.281Z,11.80
2022-12-19T06:28:46.369Z,11.80
2022-12-19T06:31:13.377Z,11.80
2022-12-19T06:33:40.115Z,11.80
2022-12-19T06:36:20.631Z,11.80
2022-12-19T06:38:48.034Z,11.80
2022-12-19T06:41:33.740Z,11.80
2022-12-19T06:44:00.981Z,11.80
2022-12-19T06:46:31.637Z,11.80
2022-12-19T06:48:59.654Z,11.80
2022-12-19T06:51:26.438Z,11.80
2022-12-19T06:53:53.660Z,11.80
2022-12-19T06:56:20.391Z,11.80
2022-12-19T06:58:47.450Z,11.80
2022-12-19T07:01:18.796Z,11.90
2022-12-19T07:03:45.542Z,11.90
2022-12-19T07:06:12.856Z,11.90
2022-12-19T07:08:39.581Z,11.90
2022-12-19T07:11:06.310Z,11.90
2022-12-19T07:13:33.055Z,11.90
2022-12-19T07:16:01.118Z,11.90
2022-12-19T07:18:29.092Z,11.90
2022-12-19T07:20:56.283Z,11.90
2022-12-19T07:23:23.106Z,11.90
2022-12-19T07:25:50.454Z,11.90
2022-12-19T07:28:17.190Z,12.00
2022-12-19T07:30:44.021Z,11.90
2022-12-19T07:33:11.842Z,12.00
2022-12-19T07:35:39.723Z,12.00
2022-12-19T07:38:06.605Z,12.00
2022-12-19T07:40:33.842Z,12.00
2022-12-19T07:43:04.572Z,12.00
2022-12-19T07:45:31.409Z,12.00
2022-12-19T07:48:02.225Z,12.00
2022-12-19T07:50:29.386Z,12.00
2022-12-19T07:52:56.810Z,11.90
2022-12-19T07:55:23.542Z,11.90
2022-12-19T07:57:50.670Z,11.90
2022-12-19T08:00:17.805Z,11.80
2022-12-19T08:02:44.825Z,11.90
2022-12-19T08:05:12.590Z,11.80
2022-12-19T08:07:39.349Z,11.80
2022-12-19T08:10:06.994Z,11.80
2022-12-19T08:12:34.130Z,11.80
2022-12-19T08:15:00.870Z,11.80
2022-12-19T08:17:27.623Z,11.80
2022-12-19T08:19:54.350Z,11.80
2022-12-19T08:22:21.113Z,11.80
2022-12-19T08:24:47.913Z,11.80
2022-12-19T08:27:16.731Z,11.80
2022-12-19T08:29:43.597Z,11.80
2022-12-19T08:32:13.216Z,11.80
2022-12-19T08:34:42.694Z,11.80
2022-12-19T08:37:11.052Z,11.80
2022-12-19T08:39:38.082Z,11.80
2022-12-19T08:42:05.082Z,11.80
2022-12-19T08:44:32.169Z,11.80
2022-12-19T08:46:59.138Z,11.80
2022-12-19T08:49:26.102Z,11.80
2022-12-19T08:51:52.857Z,11.80
2022-12-19T08:54:19.956Z,11.90
2022-12-19T08:56:47.366Z,11.80
2022-12-19T08:59:21.128Z,11.90
2022-12-19T09:01:59.060Z,11.80
2022-12-19T09:05:59.259Z,11.90
2022-12-19T09:07:15.194Z,11.90
2022-12-19T09:09:42.973Z,11.90
2022-12-19T09:12:12.488Z,11.90
2022-12-19T09:14:39.205Z,11.90
2022-12-19T09:17:06.357Z,11.90
2022-12-19T09:19:33.334Z,12.00
2022-12-19T09:22:00.506Z,12.00
2022-12-19T09:24:27.635Z,12.00
2022-12-19T09:26:54.759Z,12.00
2022-12-19T09:29:22.332Z,12.10
2022-12-19T09:31:56.360Z,12.10
2022-12-19T09:34:37.416Z,12.10
2022-12-19T09:37:10.514Z,12.10
2022-12-19T09:39:46.242Z,12.10
2022-12-19T09:42:40.728Z,12.10
2022-12-19T09:45:19.777Z,12.10
2022-12-19T09:47:59.200Z,12.10
2022-12-19T09:50:34.114Z,12.10
2022-12-19T09:53:04.639Z,12.10
2022-12-19T09:55:39.588Z,12.10
2022-12-19T09:58:23.045Z,12.10
2022-12-19T10:00:58.690Z,12.10
2022-12-19T10:03:41.523Z,12.00
2022-12-19T10:07:11.366Z,12.00
2022-12-19T10:11:06.483Z,12.00
2022-12-19T10:12:45.062Z,12.00
2022-12-19T10:15:20.756Z,12.00
2022-12-19T10:17:59.855Z,12.00
2022-12-19T10:20:41.669Z,12.00
2022-12-19T10:23:34.224Z,12.00
2022-12-19T10:26:19.487Z,12.00
2022-12-19T10:29:11.019Z,12.00
2022-12-19T10:32:04.415Z,12.00
2022-12-19T10:34:45.382Z,12.00
2022-12-19T10:37:45.607Z,12.00
2022-12-19T10:40:27.930Z,12.00
2022-12-19T10:43:35.662Z,12.00
2022-12-19T10:46:20.382Z,11.90
2022-12-19T10:48:48.323Z,11.90
2022-12-19T10:51:23.229Z,11.90
2022-12-19T10:53:57.221Z,12.00
2022-12-19T10:56:33.181Z,12.00
2022-12-19T10:59:04.767Z,12.00
2022-12-19T11:01:39.033Z,12.00
2022-12-19T11:04:19.800Z,12.00
2022-12-19T11:06:48.112Z,11.90
2022-12-19T11:09:37.486Z,11.90
2022-12-19T11:16:52.940Z,11.90
2022-12-19T11:20:28.166Z,11.90
2022-12-19T11:25:31.791Z,11.90
2022-12-19T11:29:31.803Z,11.90
2022-12-19T11:29:38.940Z,11.90
2022-12-19T11:29:44.434Z,11.90
2022-12-19T11:32:42.659Z,11.90
2022-12-19T11:35:19.786Z,11.90
2022-12-19T11:38:06.627Z,11.90
2022-12-19T11:40:48.656Z,11.80
2022-12-19T11:43:45.929Z,11.90
2022-12-19T11:46:30.525Z,11.90
2022-12-19T11:49:02.408Z,11.90
2022-12-19T11:51:43.549Z,11.90
2022-12-19T11:54:21.514Z,11.90
2022-12-19T11:56:48.623Z,11.90
2022-12-19T11:59:26.400Z,11.90
2022-12-19T12:02:28.982Z,12.00
2022-12-19T12:05:24.288Z,12.00
2022-12-19T12:08:48.581Z,12.00
2022-12-19T12:17:28.060Z,12.10
2022-12-19T12:25:40.242Z,12.10
2022-12-19T12:30:59.923Z,12.10
2022-12-19T12:31:18.532Z,12.10
2022-12-19T12:31:39.390Z,12.20
2022-12-19T12:31:40.355Z,12.20
2022-12-19T12:31:58.467Z,12.20
2022-12-19T12:35:40.930Z,12.20
2022-12-19T12:38:47.392Z,12.20
2022-12-19T12:41:47.914Z,12.20
2022-12-19T12:44:22.633Z,12.20
2022-12-19T12:47:02.900Z,12.20
2022-12-19T12:49:40.859Z,12.20
2022-12-19T12:52:09.717Z,12.30
2022-12-19T12:54:41.664Z,12.30
2022-12-19T12:57:25.192Z,12.30
2022-12-19T13:00:36.610Z,12.30
2022-12-19T13:03:10.515Z,12.30
2022-12-19T13:05:40.981Z,12.30
2022-12-19T13:08:26.090Z,12.20
2022-12-19T13:10:57.280Z,12.30
2022-12-19T13:13:59.609Z,12.30
2022-12-19T13:16:44.791Z,12.30
2022-12-19T13:19:21.074Z,12.40
2022-12-19T13:22:09.567Z,12.40
2022-12-19T13:24:50.732Z,12.40
2022-12-19T13:27:26.759Z,12.40
2022-12-19T13:29:56.848Z,12.40
2022-12-19T13:32:24.088Z,12.30
2022-12-19T13:35:04.764Z,12.30
2022-12-19T13:39:51.498Z,12.40
2022-12-19T13:40:34.512Z,12.40
2022-12-19T13:43:25.963Z,12.40
2022-12-19T13:46:37.966Z,12.50
2022-12-19T13:49:14.229Z,12.40
2022-12-19T13:51:55.213Z,12.40
2022-12-19T13:54:26.371Z,12.50
2022-12-19T13:56:53.647Z,12.50
2022-12-19T13:59:22.174Z,12.50
2022-12-19T14:01:49.089Z,12.60
2022-12-19T14:04:26.568Z,12.60
2022-12-19T14:07:05.074Z,12.60
2022-12-19T14:11:27.404Z,12.60
2022-12-19T14:13:43.225Z,12.60
2022-12-19T14:15:39.973Z,12.60
2022-12-19T14:18:42.309Z,12.50
2022-12-19T14:22:06.736Z,12.60
2022-12-19T14:24:22.829Z,12.50
2022-12-19T14:28:21.197Z,12.50
2022-12-19T14:30:27.367Z,12.40
2022-12-19T14:33:40.561Z,12.40
2022-12-19T14:36:08.398Z,12.40
2022-12-19T14:39:20.085Z,12.40
2022-12-19T14:41:07.787Z,12.40
2022-12-19T14:43:56.775Z,12.40
2022-12-19T14:54:03.654Z,12.40
2022-12-19T14:54:04.473Z,12.40
2022-12-19T14:54:24.629Z,12.40
2022-12-19T14:56:15.980Z,12.50
2022-12-19T14:58:54.513Z,12.50
2022-12-19T15:01:36.591Z,12.60
2022-12-19T15:04:53.320Z,12.60
2022-12-19T15:07:08.176Z,12.50
2022-12-19T15:11:06.968Z,12.50
2022-12-19T15:14:46.784Z,12.60
2022-12-19T15:15:58.865Z,12.60
2022-12-19T15:18:39.511Z,12.70
2022-12-19T15:21:16.061Z,12.80
2022-12-19T15:23:44.216Z,12.80
2022-12-19T15:26:29.545Z,12.80
2022-12-19T15:28:56.891Z,12.70
2022-12-19T15:31:34.879Z,12.60
2022-12-19T15:34:35.861Z,12.50
2022-12-19T15:37:04.126Z,12.40
2022-12-19T15:39:30.961Z,12.40
2022-12-19T15:41:59.359Z,12.40
2022-12-19T15:44:36.958Z,12.30
2022-12-19T15:47:05.907Z,12.30
2022-12-19T15:49:35.217Z,12.30
2022-12-19T15:52:02.787Z,12.30
2022-12-19T15:54:48.667Z,12.30
2022-12-19T15:57:39.587Z,12.30
2022-12-19T16:00:08.152Z,12.30
2022-12-19T16:03:13.357Z,12.20
2022-12-19T16:05:23.117Z,12.30
2022-12-19T16:07:50.142Z,12.30
2022-12-19T16:10:17.021Z,12.30
2022-12-19T16:12:45.896Z,12.30
2022-12-19T16:15:19.962Z,12.30
2022-12-19T16:17:46.892Z,12.30
2022-12-19T16:20:18.172Z,12.40
2022-12-19T16:22:45.318Z,12.40
2022-12-19T16:25:12.805Z,12.40
2022-12-19T16:27:39.615Z,12.40
2022-12-19T16:30:21.091Z,12.30
2022-12-19T16:32:48.962Z,12.30
2022-12-19T16:35:34.305Z,12.30
2022-12-19T16:38:07.075Z,12.30
2022-12-19T16:40:34.153Z,12.30
2022-12-19T16:43:05.832Z,12.30
2022-12-19T16:45:33.214Z,12.40
2022-12-19T16:48:00.114Z,12.30
2022-12-19T16:50:29.084Z,12.40
2022-12-19T16:52:55.913Z,12.40
2022-12-19T16:55:24.079Z,12.40
2022-12-19T16:57:52.249Z,12.40
2022-12-19T17:00:20.123Z,12.40
2022-12-19T17:02:51.595Z,12.40
2022-12-19T17:05:26.495Z,12.50
2022-12-19T17:07:54.360Z,12.50
2022-12-19T17:10:26.117Z,12.60
2022-12-19T17:12:53.391Z,12.60
2022-12-19T17:15:35.389Z,12.60
2022-12-19T17:18:03.452Z,12.70
2022-12-19T17:20:37.402Z,12.70
2022-12-19T17:23:10.321Z,12.70
2022-12-19T17:25:37.025Z,12.70
2022-12-19T17:28:03.810Z,12.70
2022-12-19T17:30:30.598Z,12.70
2022-12-19T17:33:01.596Z,12.60
2022-12-19T17:35:29.054Z,12.60
2022-12-19T17:37:56.505Z,12.60
2022-12-19T17:40:25.962Z,12.60
2022-12-19T17:42:53.144Z,12.60
2022-12-19T17:45:21.640Z,12.60
2022-12-19T17:47:49.027Z,12.60
2022-12-19T17:50:21.652Z,12.50
2022-12-19T17:52:49.921Z,12.60
2022-12-19T17:55:24.125Z,12.60
2022-12-19T17:57:51.377Z,12.60
2022-12-19T18:00:19.625Z,12.60
2022-12-19T18:02:50.484Z,12.60
2022-12-19T18:05:29.224Z,12.60
2022-12-19T18:07:56.266Z,12.60
2022-12-19T18:10:24.607Z,12.60
2022-12-19T18:12:51.520Z,12.60
2022-12-19T18:15:18.639Z,12.60
2022-12-19T18:17:46.746Z,12.60
2022-12-19T18:20:20.748Z,12.70
2022-12-19T18:22:49.692Z,12.70
2022-12-19T18:25:18.631Z,12.70
2022-12-19T18:27:46.077Z,12.70
2022-12-19T18:30:16.063Z,12.70
2022-12-19T18:32:55.272Z,12.70
2022-12-19T18:35:40.149Z,12.70
2022-12-19T18:38:26.253Z,12.70
2022-12-19T18:40:53.612Z,12.60
2022-12-19T18:43:24.436Z,12.50
2022-12-19T18:45:52.248Z,12.50
2022-12-19T18:48:29.223Z,12.50
2022-12-19T18:50:56.665Z,12.50
2022-12-19T18:53:35.286Z,12.50
2022-12-19T18:56:03.512Z,12.60
2022-12-19T18:58:30.454Z,12.60
2022-12-19T19:00:59.544Z,12.60
2022-12-19T19:03:31.828Z,12.60
2022-12-19T19:05:59.164Z,12.60
2022-12-19T19:08:27.947Z,12.60
2022-12-19T19:10:55.073Z,12.60
2022-12-19T19:13:22.756Z,12.60
2022-12-19T19:15:51.690Z,12.60
2022-12-19T19:18:24.707Z,12.60
2022-12-19T19:20:57.158Z,12.70
2022-12-19T19:23:28.861Z,12.60
2022-12-19T19:25:55.734Z,12.60
2022-12-19T19:28:22.612Z,12.60
2022-12-19T19:30:49.972Z,12.50
2022-12-19T19:33:28.779Z,12.60
2022-12-19T19:36:06.009Z,12.60
2022-12-19T19:38:40.308Z,12.50
2022-12-19T19:41:07.362Z,12.60
2022-12-19T19:43:37.318Z,12.60
2022-12-19T19:46:07.635Z,12.60
2022-12-19T19:48:38.031Z,12.60
2022-12-19T19:51:29.265Z,12.60
2022-12-19T19:53:57.984Z,12.70
2022-12-19T19:56:24.717Z,12.70
2022-12-19T19:58:52.327Z,12.70
2022-12-19T20:01:19.369Z,12.70
2022-12-19T20:03:46.755Z,12.70
2022-12-19T20:06:14.587Z,12.70
2022-12-19T20:08:47.857Z,12.70
2022-12-19T20:11:14.800Z,12.70
2022-12-19T20:13:41.596Z,12.70
2022-12-19T20:16:16.212Z,12.70
2022-12-19T20:18:46.037Z,12.70
2022-12-19T20:21:13.883Z,12.70
2022-12-19T20:23:41.590Z,12.70
2022-12-19T20:26:08.635Z,12.70
2022-12-19T20:28:36.009Z,12.70
2022-12-19T20:31:02.974Z,12.60
2022-12-19T20:33:29.922Z,12.60
2022-12-19T20:35:57.993Z,12.50
2022-12-19T20:38:24.942Z,12.50
2022-12-19T20:40:53.084Z,12.50
2022-12-19T20:43:19.877Z,12.50
2022-12-19T20:45:46.704Z,12.50
2022-12-19T20:48:13.494Z,12.40
2022-12-19T20:50:43.120Z,12.50
2022-12-19T20:53:10.423Z,12.40
2022-12-19T20:55:37.504Z,12.40
2022-12-19T20:58:04.376Z,12.50
2022-12-19T21:00:31.153Z,12.50
2022-12-19T21:05:53.568Z,12.50
2022-12-19T21:08:22.983Z,12.60
2022-12-19T21:10:49.760Z,12.60
2022-12-19T21:13:16.726Z,12.70
2022-12-19T21:15:43.469Z,12.80
2022-12-19T21:18:10.589Z,12.80
2022-12-19T21:20:38.074Z,12.80
2022-12-19T21:23:05.121Z,12.90
2022-12-19T21:25:31.926Z,13.00
2022-12-19T21:27:58.696Z,13.00
2022-12-19T21:30:25.596Z,12.90
2022-12-19T21:32:52.662Z,13.00
2022-12-19T21:35:19.458Z,13.00
2022-12-19T21:37:50.066Z,13.00
2022-12-19T21:40:20.469Z,13.00
2022-12-19T21:42:47.350Z,12.90
2022-12-19T21:45:14.472Z,12.90
2022-12-19T21:47:42.179Z,12.90
2022-12-19T21:50:10.062Z,12.90
2022-12-19T21:52:37.423Z,12.80
2022-12-19T21:55:05.263Z,12.80
2022-12-19T21:57:32.037Z,12.80
2022-12-19T21:59:58.754Z,12.80
2022-12-19T22:02:25.643Z,12.80
2022-12-19T22:04:52.557Z,12.70
2022-12-19T22:07:19.295Z,12.70
2022-12-19T22:09:46.051Z,12.70
2022-12-19T22:12:12.910Z,12.70
2022-12-19T22:14:39.696Z,12.70
2022-12-19T22:17:06.425Z,12.60
2022-12-19T22:19:33.431Z,12.60
2022-12-19T22:22:00.211Z,12.60
2022-12-19T22:24:26.931Z,12.60
2022-12-19T22:26:53.709Z,12.70
2022-12-19T22:29:20.690Z,12.70
2022-12-19T22:31:47.611Z,12.60
2022-12-19T22:34:16.828Z,12.70
2022-12-19T22:36:44.297Z,12.60
2022-12-19T22:39:12.982Z,12.60
2022-12-19T22:41:39.866Z,12.60
2022-12-19T22:44:06.800Z,12.60
2022-12-19T22:46:35.575Z,12.60
2022-12-19T22:49:04.142Z,12.70
2022-12-19T22:51:31.730Z,12.70
2022-12-19T22:53:58.741Z,12.70
2022-12-19T22:56:28.583Z,12.70
2022-12-19T22:58:56.652Z,12.70
2022-12-19T23:01:31.600Z,12.70
2022-12-19T23:03:59.608Z,12.70
2022-12-19T23:06:27.637Z,12.70
2022-12-19T23:08:54.452Z,12.70
2022-12-19T23:11:23.415Z,12.70
2022-12-19T23:13:50.700Z,12.80
2022-12-19T23:16:17.981Z,12.80
2022-12-19T23:18:44.783Z,12.80
2022-12-19T23:21:13.937Z,12.80
2022-12-19T23:23:42.583Z,12.80
2022-12-19T23:26:15.567Z,12.80
2022-12-19T23:28:43.916Z,12.80
2022-12-19T23:31:12.511Z,12.80
2022-12-19T23:33:39.412Z,12.80
2022-12-19T23:36:06.811Z,12.80
2022-12-19T23:38:33.669Z,12.80
2022-12-19T23:41:01.436Z,12.90
2022-12-19T23:43:28.676Z,12.90
2022-12-19T23:45:55.597Z,12.80
2022-12-19T23:48:26.132Z,12.70
2022-12-19T23:51:06.395Z,12.70
2022-12-19T23:53:33.460Z,12.60
2022-12-19T23:56:00.557Z,12.50
2022-12-19T23:58:27.321Z,12.60
